Time;durP1;ratioP1;P1;durP2;ratioP2;P2;SDS_P1;SDS_P2;PMS_P1;PMS_P2;Temp;Humidity;BMP_temperature;BMP_pressure;BME280_temperature;BME280_humidity;BME280_pressure;Samples;Min_cycle;Max_cycle;Signal;HPM_P1;HPM_P2
2021/12/16 00:03:17;;;;;;;9.50;6.50;;;8.60;99.90;;;;;;5050711;28;20310;-62
2021/12/16 00:06:24;;;;;;;13.70;7.90;;;8.70;99.90;;;;;;5051205;28;20299;-62
2021/12/16 00:08:55;;;;;;;17.10;8.87;;;8.70;99.90;;;;;;5050231;28;20289;-62
2021/12/16 00:19:27;;;;;;;15.73;8.67;;;8.70;99.90;;;;;;5048892;28;20739;-62
2021/12/16 00:31:35;;;;;;;16.57;9.47;;;8.70;99.90;;;;;;5044079;28;20318;-62
2021/12/16 00:34:05;;;;;;;21.83;10.90;;;8.70;99.90;;;;;;5031737;28;20244;-61
2021/12/16 00:36:35;;;;;;;22.60;12.17;;;8.70;99.90;;;;;;5046942;28;20242;-62
2021/12/16 00:39:07;;;;;;;20.43;11.40;;;8.70;99.90;;;;;;5034435;28;20601;-62
2021/12/16 00:41:36;;;;;;;22.97;11.77;;;8.70;99.90;;;;;;5029499;28;20650;-62
2021/12/16 00:44:13;;;;;;;22.13;11.27;;;8.70;99.90;;;;;;5030611;28;20719;-63
2021/12/16 00:47:02;;;;;;;17.20;11.57;;;8.70;99.90;;;;;;5026942;28;20779;-63
2021/12/16 00:49:40;;;;;;;20.37;11.20;;;8.70;99.90;;;;;;5029398;28;20692;-63
2021/12/16 00:55:05;;;;;;;18.37;10.70;;;8.70;99.90;;;;;;5035582;28;20265;-63
2021/12/16 00:57:33;;;;;;;22.57;13.10;;;8.70;99.90;;;;;;5048936;28;20243;-63
2021/12/16 01:00:05;;;;;;;21.97;12.23;;;8.80;99.90;;;;;;5065569;28;20314;-63
2021/12/16 01:03:00;;;;;;;21.47;12.47;;;8.80;99.90;;;;;;5038078;28;20228;-63
2021/12/16 01:34:10;;;;;;;28.80;15.60;;;8.70;99.90;;;;;;5031980;28;20700;-62
2021/12/16 01:42:32;;;;;;;31.00;16.23;;;8.70;99.90;;;;;;5042779;28;20236;-63
2021/12/16 01:48:04;;;;;;;34.27;15.97;;;8.70;99.90;;;;;;5052313;28;20569;-63
2021/12/16 01:50:36;;;;;;;33.37;15.70;;;8.80;99.90;;;;;;5051972;28;20318;-63
2021/12/16 01:53:24;;;;;;;27.50;16.97;;;8.80;99.90;;;;;;5052010;28;20357;-63
2021/12/16 01:56:01;;;;;;;30.47;16.17;;;8.70;99.90;;;;;;5051749;28;20232;-63
2021/12/16 01:58:32;;;;;;;28.93;16.87;;;8.70;99.90;;;;;;5051510;28;20246;-63
2021/12/16 02:01:11;;;;;;;32.60;17.37;;;8.70;99.90;;;;;;5052059;28;20294;-63
2021/12/16 02:03:46;;;;;;;30.00;17.60;;;8.80;99.90;;;;;;5046038;28;20227;-63
2021/12/16 02:06:42;;;;;;;30.87;17.93;;;8.70;99.90;;;;;;5054922;28;20200;-63
2021/12/16 02:09:20;;;;;;;26.37;16.43;;;8.70;99.90;;;;;;4981990;28;20287;-63
2021/12/16 02:11:56;;;;;;;31.83;18.63;;;8.70;99.90;;;;;;5038858;28;20644;-63
2021/12/16 02:28:33;;;;;;;30.70;19.27;;;8.70;99.90;;;;;;5052634;28;20246;-63
2021/12/16 02:31:30;;;;;;;36.30;20.17;;;8.70;99.90;;;;;;5051743;28;20596;-63
2021/12/16 02:36:45;;;;;;;35.27;20.40;;;8.70;99.90;;;;;;5046975;28;20302;-63
2021/12/16 02:39:18;;;;;;;33.83;19.67;;;8.70;99.90;;;;;;5050981;28;20245;-63
2021/12/16 02:41:50;;;;;;;36.07;19.77;;;8.70;99.90;;;;;;5050990;28;20325;-63
2021/12/16 02:44:37;;;;;;;38.70;21.90;;;8.70;99.90;;;;;;5051142;28;20580;-63
2021/12/16 02:50:06;;;;;;;40.17;21.33;;;8.70;99.90;;;;;;5010108;28;20693;-63
2021/12/16 02:52:35;;;;;;;32.07;20.70;;;8.80;99.90;;;;;;5038878;28;20235;-63
2021/12/16 02:55:06;;;;;;;37.73;20.97;;;8.80;99.90;;;;;;5052206;28;20240;-63
2021/12/16 02:57:43;;;;;;;38.10;22.77;;;8.70;99.90;;;;;;5050688;28;20236;-63
2021/12/16 03:00:15;;;;;;;39.27;21.80;;;8.80;99.90;;;;;;5050814;28;20292;-63
2021/12/16 03:02:49;;;;;;;35.03;20.43;;;8.70;99.90;;;;;;5059780;28;20251;-63
2021/12/16 03:05:19;;;;;;;39.03;19.53;;;8.70;99.90;;;;;;5039839;28;20660;-63
2021/12/16 03:07:47;;;;;;;38.70;21.60;;;8.70;99.90;;;;;;5035167;28;20249;-63
2021/12/16 03:10:50;;;;;;;36.90;22.57;;;8.70;99.90;;;;;;5042067;28;20255;-62
2021/12/16 03:13:25;;;;;;;40.90;20.67;;;8.70;99.90;;;;;;5040555;28;20244;-63
2021/12/16 03:16:05;;;;;;;36.77;21.53;;;8.70;99.90;;;;;;5031414;28;20278;-63
2021/12/16 03:18:42;;;;;;;33.10;20.57;;;8.60;99.90;;;;;;5031428;28;20262;-62
2021/12/16 03:21:18;;;;;;;35.03;21.30;;;8.60;99.90;;;;;;5032090;28;20637;-63
2021/12/16 03:24:14;;;;;;;34.73;20.97;;;8.60;99.90;;;;;;5030772;28;20272;-63
2021/12/16 03:29:54;;;;;;;39.03;21.93;;;8.70;99.90;;;;;;5050295;28;20243;-63
2021/12/16 03:35:38;;;;;;;37.30;22.53;;;8.60;99.90;;;;;;5034279;28;20263;-63
2021/12/16 03:38:09;;;;;;;40.50;21.47;;;8.60;99.90;;;;;;5038096;28;20243;-63
2021/12/16 03:40:39;;;;;;;39.17;22.77;;;8.60;99.90;;;;;;5040444;28;20237;-63
2021/12/16 03:43:13;;;;;;;40.47;22.70;;;8.70;99.90;;;;;;5040814;28;20236;-63
2021/12/16 03:48:43;;;;;;;39.37;22.70;;;8.80;99.90;;;;;;5050916;28;20259;-63
2021/12/16 03:51:14;;;;;;;43.13;24.53;;;8.70;99.90;;;;;;5050118;28;20721;-63
2021/12/16 03:53:44;;;;;;;44.07;23.70;;;8.70;99.90;;;;;;5049757;28;20244;-63
2021/12/16 03:56:18;;;;;;;47.30;24.33;;;8.60;99.90;;;;;;5049843;28;20293;-63
2021/12/16 03:59:15;;;;;;;46.50;24.43;;;8.70;99.90;;;;;;5049663;28;20638;-63
2021/12/16 04:01:55;;;;;;;44.63;24.07;;;8.70;99.90;;;;;;5049361;28;20233;-63
2021/12/16 04:04:33;;;;;;;50.47;24.50;;;8.70;99.90;;;;;;5045400;28;20379;-63
2021/12/16 04:07:04;;;;;;;45.83;24.80;;;8.60;99.90;;;;;;5054254;28;20247;-63
2021/12/16 04:09:39;;;;;;;45.77;22.20;;;8.70;99.90;;;;;;5049419;28;20695;-63
2021/12/16 04:12:21;;;;;;;45.47;24.80;;;8.80;99.90;;;;;;5049546;28;20239;-63
2021/12/16 04:14:55;;;;;;;53.50;24.90;;;8.70;99.90;;;;;;5049624;28;20255;-62
2021/12/16 04:17:28;;;;;;;52.80;25.60;;;8.70;99.90;;;;;;5049508;28;20277;-63
2021/12/16 04:20:16;;;;;;;41.93;22.93;;;8.60;99.90;;;;;;5049179;28;20239;-63
2021/12/16 04:22:46;;;;;;;49.13;25.73;;;8.70;99.90;;;;;;5049247;28;20271;-63
2021/12/16 04:25:24;;;;;;;52.70;25.37;;;8.70;99.90;;;;;;5049503;28;20277;-63
2021/12/16 04:27:55;;;;;;;52.97;25.97;;;8.70;99.90;;;;;;5049444;28;20236;-63
2021/12/16 04:30:28;;;;;;;46.20;25.23;;;8.60;99.90;;;;;;5036482;28;20400;-63
2021/12/16 04:32:57;;;;;;;51.53;26.47;;;8.60;99.90;;;;;;5036703;28;20816;-63
2021/12/16 04:35:30;;;;;;;44.50;25.07;;;8.60;99.90;;;;;;5047516;28;20227;-63
2021/12/16 04:37:58;;;;;;;47.53;24.13;;;8.60;99.90;;;;;;5057692;28;20235;-63
2021/12/16 04:40:28;;;;;;;50.63;24.77;;;8.70;99.90;;;;;;5048799;28;20671;-63
2021/12/16 04:43:02;;;;;;;45.53;25.77;;;8.60;99.90;;;;;;5049154;28;20242;-63
2021/12/16 04:45:40;;;;;;;51.67;21.63;;;8.60;99.90;;;;;;5048953;28;20285;-63
2021/12/16 04:48:08;;;;;;;55.20;24.97;;;8.70;99.90;;;;;;5050475;28;20722;-63
2021/12/16 04:50:41;;;;;;;56.77;25.90;;;8.60;99.90;;;;;;5049007;28;20259;-63
2021/12/16 04:53:12;;;;;;;47.57;24.37;;;8.70;99.90;;;;;;5048936;28;20236;-63
2021/12/16 04:55:44;;;;;;;48.73;24.20;;;8.70;99.90;;;;;;5048865;28;20326;-63
2021/12/16 04:58:14;;;;;;;45.07;24.13;;;8.70;99.90;;;;;;5048579;28;20239;-63
2021/12/16 05:00:44;;;;;;;44.63;23.23;;;8.70;99.90;;;;;;5036512;28;20771;-63
2021/12/16 05:03:22;;;;;;;45.70;22.23;;;8.60;99.90;;;;;;5029119;28;20267;-63
2021/12/16 05:05:52;;;;;;;42.83;24.43;;;8.70;99.90;;;;;;5028978;28;20320;-63
2021/12/16 05:08:21;;;;;;;51.67;23.63;;;8.70;99.90;;;;;;5065381;28;20704;-63
2021/12/16 05:11:00;;;;;;;47.50;23.50;;;8.70;99.90;;;;;;5040864;28;20223;-63
2021/12/16 05:13:31;;;;;;;52.13;24.57;;;8.70;99.90;;;;;;5037412;28;20289;-63
2021/12/16 05:16:04;;;;;;;47.67;24.47;;;8.80;99.90;;;;;;5029063;28;20763;-63
2021/12/16 05:18:38;;;;;;;44.67;24.10;;;8.70;99.90;;;;;;5028500;28;20286;-63
2021/12/16 05:21:12;;;;;;;46.40;23.37;;;8.70;99.90;;;;;;5029102;28;20263;-63
2021/12/16 05:26:27;;;;;;;54.50;25.23;;;8.70;99.90;;;;;;5028210;28;20232;-63
2021/12/16 05:29:07;;;;;;;61.03;25.03;;;8.70;99.90;;;;;;5024422;28;20250;-63
2021/12/16 05:31:39;;;;;;;58.10;27.00;;;8.70;99.90;;;;;;5029227;28;20232;-63
2021/12/16 05:34:09;;;;;;;63.80;26.30;;;8.80;99.90;;;;;;5040309;28;20264;-62
2021/12/16 05:36:40;;;;;;;58.27;25.93;;;8.70;99.90;;;;;;5051555;28;20247;-63
2021/12/16 05:39:09;;;;;;;61.77;26.57;;;8.70;99.90;;;;;;5008892;28;20243;-63
2021/12/16 05:41:47;;;;;;;56.40;27.13;;;8.70;99.90;;;;;;5011610;28;20759;-63
2021/12/16 05:44:18;;;;;;;54.00;25.53;;;8.70;99.90;;;;;;5028731;28;20233;-63
2021/12/16 05:46:49;;;;;;;65.00;28.37;;;8.70;99.90;;;;;;5029240;28;20237;-63
2021/12/16 05:49:18;;;;;;;65.10;28.60;;;8.70;99.90;;;;;;5031747;28;20283;-63
2021/12/16 05:51:49;;;;;;;53.00;27.30;;;8.60;99.90;;;;;;5033840;28;20340;-63
2021/12/16 05:54:21;;;;;;;70.17;27.37;;;8.60;99.90;;;;;;5033396;28;20232;-63
2021/12/16 05:57:16;;;;;;;61.20;28.73;;;8.60;99.90;;;;;;5030132;28;20766;-63
2021/12/16 05:59:51;;;;;;;57.70;27.10;;;8.60;99.90;;;;;;5032175;28;20240;-62
2021/12/16 06:02:21;;;;;;;65.73;28.20;;;8.80;99.90;;;;;;5036109;28;20231;-63
2021/12/16 06:04:50;;;;;;;62.10;29.10;;;8.80;99.90;;;;;;5042311;28;20249;-63
2021/12/16 06:07:19;;;;;;;59.50;28.10;;;8.70;99.90;;;;;;5041286;28;20243;-63
2021/12/16 06:09:49;;;;;;;62.20;27.00;;;8.70;99.90;;;;;;5042246;28;20237;-63
2021/12/16 06:12:17;;;;;;;58.53;27.10;;;8.70;99.90;;;;;;5042907;28;20231;-63
2021/12/16 06:14:57;;;;;;;56.47;28.20;;;8.80;99.90;;;;;;5042920;28;20322;-63
2021/12/16 06:28:34;;;;;;;52.70;28.27;;;8.70;99.90;;;;;;5052413;28;20319;-63
2021/12/16 06:31:06;;;;;;;59.60;28.00;;;8.70;99.90;;;;;;5052579;28;20241;-63
2021/12/16 06:33:35;;;;;;;58.73;26.60;;;8.80;99.90;;;;;;5052339;28;20236;-63
2021/12/16 06:36:04;;;;;;;58.23;28.20;;;8.90;99.90;;;;;;5045068;28;20240;-63
2021/12/16 06:38:32;;;;;;;57.20;28.60;;;8.80;99.90;;;;;;5055772;28;20723;-63
2021/12/16 06:41:15;;;;;;;62.17;26.87;;;8.80;99.90;;;;;;5029441;28;20234;-63
2021/12/16 06:44:06;;;;;;;58.97;28.33;;;8.90;99.90;;;;;;5047214;28;20286;-63
2021/12/16 06:46:37;;;;;;;57.60;26.57;;;8.90;99.90;;;;;;5031738;28;20712;-63
2021/12/16 06:49:09;;;;;;;51.20;27.93;;;8.80;99.90;;;;;;5032600;28;20332;-63
2021/12/16 06:51:44;;;;;;;60.10;25.87;;;8.90;99.90;;;;;;5032349;28;20256;-63
2021/12/16 06:54:21;;;;;;;66.70;29.93;;;8.90;99.90;;;;;;5035045;28;20291;-63
2021/12/16 06:56:56;;;;;;;58.27;27.87;;;8.90;99.90;;;;;;5051333;28;20331;-63
2021/12/16 06:59:29;;;;;;;61.77;28.13;;;8.90;99.90;;;;;;5041063;28;20236;-63
2021/12/16 07:02:08;;;;;;;55.83;27.03;;;8.90;99.90;;;;;;5031259;28;20259;-63
2021/12/16 07:04:39;;;;;;;52.17;23.90;;;9.00;99.90;;;;;;5031645;28;20236;-63
2021/12/16 07:07:08;;;;;;;68.57;28.87;;;9.10;99.90;;;;;;5036129;28;20289;-63
2021/12/16 07:09:37;;;;;;;53.23;27.37;;;9.00;99.90;;;;;;5040978;28;20240;-63
2021/12/16 07:12:08;;;;;;;52.37;25.90;;;8.90;99.90;;;;;;5039087;28;20244;-63
2021/12/16 07:14:39;;;;;;;55.23;25.63;;;8.80;99.90;;;;;;5032057;28;20240;-63
2021/12/16 07:17:10;;;;;;;49.27;26.33;;;8.90;99.90;;;;;;5032083;28;20320;-63
2021/12/16 07:19:40;;;;;;;51.77;25.63;;;8.80;99.90;;;;;;5031925;28;20232;-63
2021/12/16 07:22:10;;;;;;;46.07;24.60;;;8.80;99.90;;;;;;5031933;28;20286;-63
2021/12/16 07:24:38;;;;;;;47.43;24.20;;;8.80;99.90;;;;;;5031537;28;20236;-61
2021/12/16 07:27:08;;;;;;;53.47;24.70;;;8.80;99.90;;;;;;5035891;28;20759;-63
2021/12/16 07:29:36;;;;;;;54.00;25.53;;;8.90;99.90;;;;;;5031342;28;20244;-63
2021/12/16 07:32:06;;;;;;;49.63;23.43;;;8.80;99.90;;;;;;5031959;28;20232;-63
2021/12/16 07:34:35;;;;;;;52.33;24.63;;;8.90;99.90;;;;;;5031702;28;20612;-61
2021/12/16 07:37:08;;;;;;;45.63;24.53;;;8.80;99.90;;;;;;5031697;28;20239;-62
2021/12/16 07:39:41;;;;;;;49.17;25.23;;;8.90;99.90;;;;;;5031286;28;20263;-61
2021/12/16 07:42:12;;;;;;;48.60;24.60;;;8.90;99.90;;;;;;5035653;28;20262;-61
2021/12/16 07:44:41;;;;;;;47.77;24.63;;;8.90;99.90;;;;;;5040799;28;20232;-61
2021/12/16 07:47:11;;;;;;;45.57;24.90;;;9.00;99.90;;;;;;5042092;28;20639;-61
2021/12/16 07:49:42;;;;;;;49.77;23.50;;;8.90;99.90;;;;;;5040852;28;20264;-61
2021/12/16 07:52:15;;;;;;;51.67;23.20;;;8.90;99.90;;;;;;5041963;28;20721;-61
2021/12/16 07:54:43;;;;;;;55.93;25.27;;;8.90;99.90;;;;;;5041210;28;20326;-61
2021/12/16 07:57:12;;;;;;;55.57;24.43;;;9.00;99.90;;;;;;5041507;28;20224;-60
2021/12/16 07:59:40;;;;;;;51.63;25.27;;;9.00;99.90;;;;;;5028359;28;20323;-61
2021/12/16 08:02:11;;;;;;;49.60;24.47;;;8.90;99.90;;;;;;5031212;28;20624;-61
2021/12/16 08:04:42;;;;;;;45.87;25.47;;;8.90;99.90;;;;;;5031053;28;20371;-61
2021/12/16 08:07:14;;;;;;;49.77;24.33;;;8.90;99.90;;;;;;5025107;28;20320;-61
2021/12/16 08:09:43;;;;;;;52.20;24.60;;;8.90;99.90;;;;;;5010986;28;20331;-61
2021/12/16 08:12:14;;;;;;;51.67;24.27;;;8.90;99.90;;;;;;5018310;28;20260;-61
2021/12/16 08:14:43;;;;;;;50.53;23.30;;;8.90;99.90;;;;;;5022553;28;20240;-61
2021/12/16 08:17:11;;;;;;;42.57;23.67;;;8.90;99.90;;;;;;5043949;28;20786;-61
2021/12/16 08:19:39;;;;;;;49.57;23.73;;;8.90;99.90;;;;;;5022878;28;20237;-61
2021/12/16 08:22:08;;;;;;;42.27;22.20;;;8.90;99.90;;;;;;5035062;28;20318;-61
2021/12/16 08:24:38;;;;;;;44.73;22.63;;;8.90;99.90;;;;;;5028370;28;20233;-61
2021/12/16 08:27:08;;;;;;;46.50;22.00;;;8.90;99.90;;;;;;5050682;28;20711;-61
2021/12/16 08:29:36;;;;;;;38.87;21.17;;;8.90;99.90;;;;;;5050466;28;20588;-61
2021/12/16 08:32:05;;;;;;;39.80;21.13;;;8.90;99.90;;;;;;5054727;28;20240;-61
2021/12/16 08:34:37;;;;;;;41.53;20.23;;;8.90;99.90;;;;;;5050376;28;20729;-61
2021/12/16 08:37:06;;;;;;;38.33;20.80;;;8.90;99.90;;;;;;5050323;28;20235;-61
2021/12/16 08:39:35;;;;;;;33.87;20.03;;;8.90;99.90;;;;;;5050384;28;20224;-61
2021/12/16 08:42:09;;;;;;;37.80;20.57;;;9.00;99.90;;;;;;5050678;28;20652;-61
2021/12/16 08:44:37;;;;;;;37.93;20.03;;;9.00;99.90;;;;;;5050548;28;20850;-61
2021/12/16 08:47:09;;;;;;;36.93;20.37;;;9.00;99.90;;;;;;5050672;28;20231;-61
2021/12/16 08:49:38;;;;;;;38.77;20.87;;;9.00;99.90;;;;;;5034744;28;20232;-60
2021/12/16 08:52:10;;;;;;;36.77;18.80;;;9.00;99.90;;;;;;5034126;28;20232;-61
2021/12/16 08:54:38;;;;;;;33.20;18.77;;;9.00;99.90;;;;;;5010886;28;20256;-61
2021/12/16 08:57:08;;;;;;;37.07;19.63;;;9.10;99.90;;;;;;5016203;28;20229;-61
2021/12/16 08:59:36;;;;;;;34.13;17.93;;;9.00;99.90;;;;;;5030450;28;20236;-61
2021/12/16 09:02:07;;;;;;;31.00;16.77;;;9.00;99.90;;;;;;5030450;28;20237;-61
2021/12/16 09:04:37;;;;;;;32.13;18.07;;;9.10;99.90;;;;;;5030466;28;20750;-61
2021/12/16 09:07:08;;;;;;;29.57;16.87;;;9.10;99.90;;;;;;5030334;28;20240;-61
2021/12/16 09:09:38;;;;;;;26.60;15.63;;;9.10;99.90;;;;;;5030311;28;20700;-61
2021/12/16 09:12:14;;;;;;;32.50;16.83;;;9.10;99.90;;;;;;5030309;28;20248;-61
2021/12/16 09:14:44;;;;;;;30.77;15.50;;;9.10;99.90;;;;;;5030348;28;20274;-61
2021/12/16 09:17:15;;;;;;;25.40;15.77;;;9.20;99.90;;;;;;5034043;28;20319;-62
2021/12/16 09:19:46;;;;;;;26.30;14.93;;;9.30;99.90;;;;;;5028341;28;20709;-60
2021/12/16 09:22:17;;;;;;;29.00;14.87;;;9.30;99.90;;;;;;5035949;28;20714;-61
2021/12/16 09:24:46;;;;;;;25.90;14.50;;;9.30;99.90;;;;;;5044223;28;20244;-61
2021/12/16 09:27:17;;;;;;;25.97;14.30;;;9.30;99.90;;;;;;5038614;28;20236;-61
2021/12/16 09:29:46;;;;;;;24.60;13.33;;;9.20;99.90;;;;;;5033993;28;20326;-61
2021/12/16 09:32:15;;;;;;;22.80;12.43;;;9.20;99.90;;;;;;5033839;28;20327;-61
2021/12/16 09:34:46;;;;;;;23.60;13.27;;;9.20;99.90;;;;;;5034000;28;20251;-61
2021/12/16 09:37:14;;;;;;;23.20;13.00;;;9.20;99.90;;;;;;5033818;28;20244;-61
2021/12/16 09:39:42;;;;;;;23.43;12.17;;;9.30;99.90;;;;;;5047003;28;20326;-61
2021/12/16 09:42:11;;;;;;;19.47;11.73;;;9.20;99.90;;;;;;5057197;28;20758;-61
2021/12/16 09:44:42;;;;;;;23.10;11.93;;;9.20;99.90;;;;;;5025343;28;20269;-60
2021/12/16 09:47:13;;;;;;;17.10;11.43;;;9.20;99.90;;;;;;5033338;28;20236;-61
2021/12/16 09:49:42;;;;;;;18.63;9.93;;;9.20;99.90;;;;;;5023094;28;20234;-61
2021/12/16 09:52:14;;;;;;;16.43;9.30;;;9.20;99.90;;;;;;5037183;28;20235;-61
2021/12/16 09:54:44;;;;;;;16.37;8.07;;;9.20;99.90;;;;;;5053475;28;20239;-61
2021/12/16 09:57:13;;;;;;;17.73;9.03;;;9.20;99.90;;;;;;5051413;28;20580;-60
2021/12/16 09:59:43;;;;;;;16.13;9.10;;;9.20;99.90;;;;;;5042940;28;20600;-61
2021/12/16 10:02:15;;;;;;;16.50;8.53;;;9.20;99.90;;;;;;5039848;28;20315;-60
2021/12/16 10:04:45;;;;;;;12.57;7.80;;;9.20;99.90;;;;;;5045802;28;20264;-61
2021/12/16 10:07:16;;;;;;;12.00;6.63;;;9.20;99.90;;;;;;5047076;28;20224;-61
2021/12/16 10:09:46;;;;;;;11.07;5.70;;;9.20;99.90;;;;;;5053281;28;20912;-61
2021/12/16 10:12:18;;;;;;;10.60;5.70;;;9.20;99.90;;;;;;5053242;28;20232;-61
2021/12/16 10:15:05;;;;;;;11.40;5.87;;;9.10;99.90;;;;;;5024990;28;20803;-62
2021/12/16 10:17:35;;;;;;;12.20;6.17;;;9.20;99.90;;;;;;5033050;28;20283;-61
2021/12/16 10:20:11;;;;;;;10.13;5.63;;;9.20;99.90;;;;;;5045809;28;20311;-61
2021/12/16 10:22:42;;;;;;;9.57;5.27;;;9.20;99.90;;;;;;5023066;28;20696;-61
2021/12/16 10:25:21;;;;;;;8.17;4.50;;;9.20;99.90;;;;;;5033204;28;20240;-61
2021/12/16 10:27:58;;;;;;;8.53;4.50;;;9.20;99.90;;;;;;5039295;28;20689;-61
2021/12/16 10:30:38;;;;;;;8.03;3.50;;;9.20;99.90;;;;;;5041380;28;20262;-61
2021/12/16 10:33:25;;;;;;;5.20;3.00;;;9.30;99.90;;;;;;5042637;28;20576;-61
2021/12/16 10:36:08;;;;;;;5.00;3.00;;;9.20;99.90;;;;;;5049392;28;20323;-61
2021/12/16 10:38:40;;;;;;;7.30;3.27;;;9.20;99.90;;;;;;5023500;28;20234;-61
2021/12/16 10:41:10;;;;;;;9.17;4.00;;;9.30;99.90;;;;;;5032899;28;20248;-61
2021/12/16 10:43:41;;;;;;;6.93;3.30;;;9.30;99.90;;;;;;5040793;28;20243;-61
2021/12/16 10:46:14;;;;;;;11.97;3.83;;;9.30;99.90;;;;;;5029169;28;20260;-61
2021/12/16 10:48:45;;;;;;;7.47;4.30;;;9.20;99.90;;;;;;5032090;28;20299;-61
2021/12/16 10:51:19;;;;;;;8.80;4.07;;;9.20;99.90;;;;;;5033149;28;20236;-62
2021/12/16 10:53:57;;;;;;;6.97;3.70;;;9.30;99.90;;;;;;5029362;28;20232;-61
2021/12/16 10:56:30;;;;;;;8.27;3.80;;;9.30;99.90;;;;;;5031255;28;20692;-61
2021/12/16 10:59:00;;;;;;;10.60;4.20;;;9.30;99.90;;;;;;5012749;28;20719;-61
2021/12/16 11:01:52;;;;;;;7.17;4.00;;;9.30;99.90;;;;;;5030737;28;20241;-62
2021/12/16 11:04:28;;;;;;;6.87;3.90;;;9.40;99.90;;;;;;5026848;28;20315;-61
2021/12/16 11:07:01;;;;;;;8.47;4.63;;;9.40;99.90;;;;;;5031861;28;20246;-61
2021/12/16 11:09:46;;;;;;;9.80;4.73;;;9.50;99.90;;;;;;5043747;28;20297;-62
2021/12/16 11:12:19;;;;;;;12.53;4.90;;;9.50;99.90;;;;;;5038134;28;20591;-61
2021/12/16 11:14:50;;;;;;;11.07;5.77;;;9.40;99.90;;;;;;5055291;28;20255;-61
2021/12/16 11:17:24;;;;;;;10.27;4.77;;;9.40;99.90;;;;;;5057167;28;20262;-61
2021/12/16 11:19:56;;;;;;;9.23;4.60;;;9.40;99.90;;;;;;5054337;28;20322;-61
2021/12/16 11:22:30;;;;;;;9.43;5.37;;;9.40;99.90;;;;;;5064104;28;20238;-62
2021/12/16 11:24:59;;;;;;;13.03;5.03;;;9.40;99.90;;;;;;5051916;28;20720;-61
2021/12/16 11:27:34;;;;;;;10.00;4.70;;;9.40;99.90;;;;;;5051456;28;20599;-61
2021/12/16 11:30:22;;;;;;;9.03;4.77;;;9.40;99.90;;;;;;5051993;28;20326;-61
2021/12/16 11:32:54;;;;;;;8.27;4.60;;;9.40;99.90;;;;;;5044825;28;20250;-61
2021/12/16 11:35:33;;;;;;;11.27;4.63;;;9.40;99.90;;;;;;5031692;28;20232;-61
2021/12/16 11:38:06;;;;;;;10.67;4.97;;;9.40;99.90;;;;;;5039559;28;20332;-61
2021/12/16 11:40:55;;;;;;;8.77;4.63;;;9.50;99.90;;;;;;5039659;28;20241;-62
2021/12/16 11:43:49;;;;;;;11.50;5.27;;;9.50;99.90;;;;;;5032144;28;20268;-61
2021/12/16 11:46:21;;;;;;;9.40;4.83;;;9.50;99.90;;;;;;5021211;28;20692;-61
2021/12/16 11:49:15;;;;;;;11.13;4.50;;;9.60;99.90;;;;;;5031123;28;20259;-61
2021/12/16 11:51:46;;;;;;;12.50;4.63;;;9.70;99.90;;;;;;5042859;28;20232;-62
2021/12/16 11:54:20;;;;;;;10.63;5.20;;;9.70;99.90;;;;;;5047143;28;20268;-61
2021/12/16 11:56:52;;;;;;;8.90;4.77;;;9.70;99.90;;;;;;5043668;28;20240;-61
2021/12/16 11:59:25;;;;;;;13.17;5.00;;;9.70;99.90;;;;;;5012793;28;20645;-61
2021/12/16 12:01:53;;;;;;;7.60;4.27;;;9.70;99.90;;;;;;5017492;28;20240;-61
2021/12/16 12:04:29;;;;;;;9.90;4.17;;;9.70;99.90;;;;;;5040507;28;20247;-61
2021/12/16 12:06:57;;;;;;;11.60;4.70;;;9.60;99.90;;;;;;5039481;28;20239;-61
2021/12/16 12:09:38;;;;;;;9.07;4.33;;;9.60;99.90;;;;;;5041866;28;20242;-61
2021/12/16 12:12:08;;;;;;;10.77;4.50;;;9.60;99.90;;;;;;5037994;28;20297;-60
2021/12/16 12:14:38;;;;;;;10.53;3.93;;;9.60;99.90;;;;;;5047440;28;20713;-61
2021/12/16 12:17:10;;;;;;;10.33;4.50;;;9.70;99.90;;;;;;5262495;22;20253;-62
2021/12/16 12:19:45;;;;;;;8.43;3.80;;;9.70;99.90;;;;;;5023896;28;20695;-62
2021/12/16 12:22:14;;;;;;;9.47;4.07;;;9.80;99.90;;;;;;5029485;28;20255;-62
2021/12/16 12:24:46;;;;;;;10.90;4.53;;;9.80;99.90;;;;;;5010713;28;20714;-62
2021/12/16 12:27:17;;;;;;;8.03;4.10;;;9.80;99.90;;;;;;5017340;28;20237;-62
2021/12/16 12:29:48;;;;;;;8.30;3.20;;;9.80;99.90;;;;;;5030621;28;20264;-62
2021/12/16 12:32:19;;;;;;;6.17;3.53;;;9.80;99.90;;;;;;5030690;28;20259;-62
2021/12/16 12:34:53;;;;;;;9.20;3.30;;;9.80;99.90;;;;;;5030385;28;20233;-62
2021/12/16 12:37:24;;;;;;;8.70;3.63;;;9.80;99.90;;;;;;5030330;28;20236;-62
2021/12/16 12:40:00;;;;;;;6.33;3.13;;;9.80;99.90;;;;;;5030490;28;20680;-62
2021/12/16 12:42:29;;;;;;;8.77;3.57;;;9.70;99.90;;;;;;5030070;28;20691;-62
2021/12/16 12:44:57;;;;;;;7.33;3.10;;;9.60;99.90;;;;;;5030802;28;20228;-62
2021/12/16 12:47:28;;;;;;;7.90;2.90;;;9.60;99.90;;;;;;5030292;28;20297;-62
2021/12/16 12:50:10;;;;;;;8.97;3.30;;;9.60;99.90;;;;;;5177572;22;20234;-62
2021/12/16 12:52:38;;;;;;;8.60;3.00;;;9.60;99.90;;;;;;5040380;28;20236;-62
2021/12/16 12:55:11;;;;;;;9.00;3.60;;;9.60;99.90;;;;;;5030491;28;20240;-60
2021/12/16 12:57:42;;;;;;;8.97;3.37;;;9.60;99.90;;;;;;5053540;28;20319;-60
2021/12/16 13:00:24;;;;;;;11.93;3.33;;;9.50;99.90;;;;;;5045589;28;20260;-60
2021/12/16 13:02:58;;;;;;;9.60;3.33;;;9.50;99.90;;;;;;5041222;28;20711;-60
2021/12/16 13:05:27;;;;;;;7.50;3.17;;;9.60;99.90;;;;;;5034550;28;20266;-61
2021/12/16 13:08:00;;;;;;;9.37;3.37;;;9.60;99.90;;;;;;5046149;28;20235;-60
2021/12/16 13:10:38;;;;;;;9.70;3.27;;;9.70;99.90;;;;;;5053918;28;20261;-60
2021/12/16 13:13:33;;;;;;;7.80;2.93;;;9.70;99.90;;;;;;5040241;28;20260;-60
2021/12/16 13:16:23;;;;;;;8.40;3.27;;;9.80;99.90;;;;;;5034704;28;20652;-60
2021/12/16 13:24:58;;;;;;;10.07;3.10;;;9.80;99.90;;;;;;5034101;28;20236;-60
2021/12/16 13:27:37;;;;;;;10.97;2.80;;;9.90;99.90;;;;;;5041362;28;20239;-60
2021/12/16 13:30:19;;;;;;;8.93;2.83;;;9.80;99.90;;;;;;5053354;28;20232;-60
2021/12/16 13:33:15;;;;;;;11.60;3.60;;;9.80;99.90;;;;;;5042962;28;20263;-60
2021/12/16 13:35:49;;;;;;;10.90;3.57;;;9.70;99.90;;;;;;5046669;28;20314;-60
2021/12/16 13:38:21;;;;;;;8.33;3.20;;;9.70;99.90;;;;;;5051139;28;20703;-60
2021/12/16 13:40:51;;;;;;;9.07;3.67;;;9.60;99.90;;;;;;5053254;28;20262;-60
2021/12/16 13:43:25;;;;;;;8.93;3.63;;;9.60;99.90;;;;;;5040812;28;20233;-60
2021/12/16 13:46:11;;;;;;;7.43;3.23;;;9.70;99.90;;;;;;5052267;28;20246;-60
2021/12/16 13:48:53;;;;;;;8.40;3.50;;;9.70;99.90;;;;;;5052556;28;20315;-60
2021/12/16 14:06:17;;;;;;;11.17;4.07;;;9.50;99.90;;;;;;5070028;27;20626;-62
2021/12/16 14:08:49;;;;;;;8.00;4.30;;;9.50;99.90;;;;;;5065456;27;20277;-62
2021/12/16 14:14:45;;;;;;;7.03;3.30;;;9.50;99.90;;;;;;5047551;28;20285;-62
2021/12/16 14:17:51;;;;;;;9.87;3.20;;;9.40;99.90;;;;;;5064527;28;20677;-62
2021/12/16 14:23:26;;;;;;;8.33;2.77;;;9.30;99.90;;;;;;5067317;28;20263;-62
2021/12/16 14:26:18;;;;;;;8.97;3.10;;;9.30;99.90;;;;;;5067673;28;25523;-62
2021/12/16 14:37:28;;;;;;;7.73;2.73;;;9.20;99.90;;;;;;5066808;28;20673;-62
2021/12/16 14:40:13;;;;;;;9.27;3.03;;;9.20;99.90;;;;;;5060781;28;20437;-62
2021/12/16 14:43:03;;;;;;;12.67;2.90;;;9.10;99.90;;;;;;5058763;28;20322;-63
2021/12/16 14:45:39;;;;;;;12.97;3.30;;;9.10;99.90;;;;;;5063348;28;20293;-63
2021/12/16 14:48:28;;;;;;;14.37;3.20;;;9.10;99.90;;;;;;5054585;28;20238;-63
2021/12/16 14:51:02;;;;;;;8.93;3.10;;;9.10;99.90;;;;;;5089116;27;20240;-63
2021/12/16 14:53:34;;;;;;;8.67;3.03;;;9.10;99.90;;;;;;5058330;28;21011;-62
2021/12/16 14:56:07;;;;;;;8.53;2.60;;;9.20;99.90;;;;;;5058063;28;20271;-63
2021/12/16 14:58:36;;;;;;;10.47;3.23;;;9.10;99.90;;;;;;5057292;28;20318;-63
2021/12/16 15:01:07;;;;;;;9.40;3.10;;;9.10;99.90;;;;;;5056995;28;20227;-62
2021/12/16 15:03:41;;;;;;;9.80;3.13;;;9.10;99.90;;;;;;5057394;28;20327;-62
2021/12/16 15:06:15;;;;;;;8.23;3.50;;;9.10;99.90;;;;;;5057620;28;20575;-62
2021/12/16 15:08:51;;;;;;;9.20;3.03;;;9.00;99.90;;;;;;5057385;28;20238;-60
2021/12/16 15:11:30;;;;;;;9.87;3.10;;;9.00;99.90;;;;;;5056232;28;20247;-60
2021/12/16 15:14:04;;;;;;;7.70;3.33;;;9.00;99.90;;;;;;5057566;28;20242;-61
2021/12/16 15:16:50;;;;;;;11.17;3.17;;;9.00;99.90;;;;;;5049935;28;20240;-61
2021/12/16 15:36:38;;;;;;;11.67;3.93;;;8.70;99.90;;;;;;5039809;28;20653;-61
2021/12/16 15:39:24;;;;;;;10.77;4.03;;;8.70;99.90;;;;;;5043871;28;20301;-60
2021/12/16 15:44:47;;;;;;;10.53;3.97;;;8.70;99.90;;;;;;5042222;28;20336;-61
2021/12/16 15:47:16;;;;;;;10.77;4.03;;;8.60;99.90;;;;;;5043879;28;20244;-60
2021/12/16 15:49:44;;;;;;;10.27;4.03;;;8.60;99.90;;;;;;5043856;28;20315;-61
2021/12/16 15:52:13;;;;;;;9.83;4.43;;;8.60;99.90;;;;;;5043910;28;20237;-61
2021/12/16 15:54:47;;;;;;;9.97;3.90;;;8.60;99.90;;;;;;5042013;28;20246;-61
2021/12/16 15:57:21;;;;;;;11.10;4.60;;;8.60;99.90;;;;;;5043805;28;20262;-61